Observations for ODIHAM RAF, United Kingdom (EGVO)

EGVO 241950Z 23018KT 9999 -RA FEW006 OVC008 12/10 Q1009 GRN TEMPO SCT006 YLO1   
EGVO 241850Z 23016KT 9999 -RA FEW005 OVC008 12/10 Q1009 GRN TEMPO SCT005 YLO1   
EGVO 241750Z 22016KT 7000 -DZ OVC005 12/11 Q1010 YLO1 TEMPO FEW005 OVC007 GRN   
EGVO 241717Z 22017KT 9999 OVC006 12/11 Q1010 YLO1 TEMPO OVC007 GRN
EGVO 241650Z 22018G28KT 9999 FEW006 OVC007 12/11 Q1010 GRN TEMPO SCT006 OVC007 YLO1 
EGVO 241550Z 22017KT 9999 SCT006 OVC007 12/11 Q1011 YLO1 TEMPO FEW006 OVC007 GRN
EGVO 241450Z 22016KT 8000 -DZ BKN006 OVC007 12/11 Q1012 YLO1 TEMPO FEW006 OVC007 GRN
EGVO 241350Z 21018KT 5000 -DZ BKN010 13/10 Q1013 GRN TEMPO BKN006 YLO1  
EGVO 241250Z 20016KT 9999 FEW032 BKN038 15/07 Q1013 BLU BECMG SCT012 GRN
EGVO 241150Z 21012KT 9999 FEW026 BKN055 16/08 Q1014 BLU NOSIG   
EGVO 241050Z 22010KT 9999 FEW026 BKN050 14/08 Q1015 BLU NOSIG   
EGVO 240950Z 26008KT 9999 FEW014 BKN060 13/07 Q1016 BLU TEMPO SCT015 WHT
EGVO 240850Z 26010KT 9999 FEW014 BKN060 12/08 Q1016 BLU TEMPO SCT014 GRN
EGVO 240750Z 26012KT 9999 FEW014 BKN070 11/08 Q1016 BLU TEMPO SCT014 GRN
EGVO 240650Z 26012KT 9999 FEW012 OVC070 11/08 Q1016 BLU TEMPO SCT012 GRN
EGVO 240550Z 25010KT 9999 FEW010 OVC070 11/09 Q1015 BLU 
EGVO 240450Z 26008KT 9999 BKN010 BKN020 11/09 Q1015 GRN 
EGVO 240350Z 25010KT 9999 FEW012 BKN019 BKN110 11/09 Q1015 WHT  
EGVO 240250Z 24010KT 9999 FEW011 BKN020 11/09 Q1015 WHT 
EGVO 240150Z 24013KT 9999 BKN011 BKN080 11/08 Q1015 GRN 
EGVO 240050Z 24014KT 9999 OVC012 11/08 Q1015 GRN
EGVO 232350Z 23015KT 9999 BKN014 10/07 Q1015 GRN
EGVO 232250Z 23011KT 9999 OVC020 11/07 Q1016 WHT BECMG BKN010 GRN   
EGVO 232222Z 23011KT 9999 BKN022 11/07 Q1016 WHT BECMG BKN010 GRN
EGVO 232150Z 22014KT CAVOK 10/07 Q1016 BLU BECMG BKN020 WHT 
EGVO 232050Z 23012KT CAVOK 11/07 Q1016 BLU BECMG BKN020 WHT 
EGVO 231950Z 23013KT CAVOK 11/06 Q1016 BLU NOSIG